sensor_id;sensor_type;location;lat;lon;timestamp;P1;durP1;ratioP1;P2;durP2;ratioP2
35685;SDS011;21808;42.142;24.720;2024-01-30T00:00:43;8.15;;;3.28;;
35685;SDS011;21808;42.142;24.720;2024-01-30T00:03:10;12.25;;;4.25;;
35685;SDS011;21808;42.142;24.720;2024-01-30T00:05:36;12.35;;;3.95;;
35685;SDS011;21808;42.142;24.720;2024-01-30T00:08:03;10.57;;;3.83;;
35685;SDS011;21808;42.142;24.720;2024-01-30T00:10:30;8.55;;;3.22;;
35685;SDS011;21808;42.142;24.720;2024-01-30T00:12:57;9.20;;;3.50;;
35685;SDS011;21808;42.142;24.720;2024-01-30T00:15:25;10.60;;;3.63;;
35685;SDS011;21808;42.142;24.720;2024-01-30T00:17:52;9.43;;;4.20;;
35685;SDS011;21808;42.142;24.720;2024-01-30T00:20:20;9.38;;;3.83;;
35685;SDS011;21808;42.142;24.720;2024-01-30T00:22:47;9.35;;;3.30;;
35685;SDS011;21808;42.142;24.720;2024-01-30T00:25:14;10.05;;;3.40;;
35685;SDS011;21808;42.142;24.720;2024-01-30T00:27:41;9.20;;;3.88;;
35685;SDS011;21808;42.142;24.720;2024-01-30T00:30:08;8.38;;;3.55;;
35685;SDS011;21808;42.142;24.720;2024-01-30T00:32:36;9.43;;;3.42;;
35685;SDS011;21808;42.142;24.720;2024-01-30T00:35:03;8.18;;;3.47;;
35685;SDS011;21808;42.142;24.720;2024-01-30T00:37:30;9.75;;;3.97;;
35685;SDS011;21808;42.142;24.720;2024-01-30T00:39:58;8.63;;;3.63;;
35685;SDS011;21808;42.142;24.720;2024-01-30T00:42:25;8.98;;;3.60;;
35685;SDS011;21808;42.142;24.720;2024-01-30T00:44:52;8.90;;;3.67;;
35685;SDS011;21808;42.142;24.720;2024-01-30T00:47:19;8.43;;;3.55;;
35685;SDS011;21808;42.142;24.720;2024-01-30T00:49:47;10.40;;;3.30;;
35685;SDS011;21808;42.142;24.720;2024-01-30T00:52:14;8.63;;;3.40;;
35685;SDS011;21808;42.142;24.720;2024-01-30T00:54:41;10.45;;;3.28;;
35685;SDS011;21808;42.142;24.720;2024-01-30T00:57:07;9.88;;;3.50;;
35685;SDS011;21808;42.142;24.720;2024-01-30T00:59:34;9.82;;;3.83;;
35685;SDS011;21808;42.142;24.720;2024-01-30T01:02:01;10.52;;;4.10;;
35685;SDS011;21808;42.142;24.720;2024-01-30T01:04:28;10.60;;;4.45;;
35685;SDS011;21808;42.142;24.720;2024-01-30T01:06:56;14.93;;;5.40;;
35685;SDS011;21808;42.142;24.720;2024-01-30T01:09:23;12.93;;;5.15;;
35685;SDS011;21808;42.142;24.720;2024-01-30T01:11:49;12.20;;;5.15;;
35685;SDS011;21808;42.142;24.720;2024-01-30T01:14:16;15.10;;;5.63;;
35685;SDS011;21808;42.142;24.720;2024-01-30T01:16:43;12.15;;;4.35;;
35685;SDS011;21808;42.142;24.720;2024-01-30T01:19:10;12.52;;;5.63;;
35685;SDS011;21808;42.142;24.720;2024-01-30T01:21:36;11.15;;;4.78;;
35685;SDS011;21808;42.142;24.720;2024-01-30T01:24:06;9.90;;;3.83;;
35685;SDS011;21808;42.142;24.720;2024-01-30T01:26:32;11.55;;;3.53;;
35685;SDS011;21808;42.142;24.720;2024-01-30T01:28:59;9.80;;;3.65;;
35685;SDS011;21808;42.142;24.720;2024-01-30T01:31:26;10.88;;;3.90;;
35685;SDS011;21808;42.142;24.720;2024-01-30T01:33:56;10.90;;;4.72;;
35685;SDS011;21808;42.142;24.720;2024-01-30T01:36:23;13.20;;;4.78;;
35685;SDS011;21808;42.142;24.720;2024-01-30T01:38:50;9.82;;;3.75;;
35685;SDS011;21808;42.142;24.720;2024-01-30T01:41:18;12.15;;;4.57;;
35685;SDS011;21808;42.142;24.720;2024-01-30T01:43:45;12.30;;;5.10;;
35685;SDS011;21808;42.142;24.720;2024-01-30T01:46:12;11.93;;;5.80;;
35685;SDS011;21808;42.142;24.720;2024-01-30T01:48:38;11.73;;;6.10;;
35685;SDS011;21808;42.142;24.720;2024-01-30T01:51:06;12.38;;;6.85;;
35685;SDS011;21808;42.142;24.720;2024-01-30T01:53:34;11.82;;;5.05;;
35685;SDS011;21808;42.142;24.720;2024-01-30T01:56:00;15.38;;;5.10;;
35685;SDS011;21808;42.142;24.720;2024-01-30T01:58:28;11.43;;;4.57;;
35685;SDS011;21808;42.142;24.720;2024-01-30T02:00:56;14.48;;;5.15;;
35685;SDS011;21808;42.142;24.720;2024-01-30T02:03:23;11.90;;;4.40;;
35685;SDS011;21808;42.142;24.720;2024-01-30T02:05:50;12.27;;;5.30;;
35685;SDS011;21808;42.142;24.720;2024-01-30T02:08:17;14.05;;;5.10;;
35685;SDS011;21808;42.142;24.720;2024-01-30T02:10:43;12.93;;;5.45;;
35685;SDS011;21808;42.142;24.720;2024-01-30T02:13:10;13.55;;;4.72;;
35685;SDS011;21808;42.142;24.720;2024-01-30T02:15:38;11.27;;;4.88;;
35685;SDS011;21808;42.142;24.720;2024-01-30T02:18:05;12.50;;;4.43;;
35685;SDS011;21808;42.142;24.720;2024-01-30T02:20:32;11.60;;;4.95;;
35685;SDS011;21808;42.142;24.720;2024-01-30T02:23:02;13.55;;;5.38;;
35685;SDS011;21808;42.142;24.720;2024-01-30T02:25:31;17.45;;;6.32;;
35685;SDS011;21808;42.142;24.720;2024-01-30T02:27:58;15.10;;;6.82;;
35685;SDS011;21808;42.142;24.720;2024-01-30T02:30:25;18.58;;;6.90;;
35685;SDS011;21808;42.142;24.720;2024-01-30T02:32:52;14.85;;;7.40;;
35685;SDS011;21808;42.142;24.720;2024-01-30T02:35:18;17.55;;;8.65;;
35685;SDS011;21808;42.142;24.720;2024-01-30T02:37:45;16.55;;;6.15;;
35685;SDS011;21808;42.142;24.720;2024-01-30T02:40:13;14.23;;;5.80;;
35685;SDS011;21808;42.142;24.720;2024-01-30T02:42:40;14.95;;;6.70;;
35685;SDS011;21808;42.142;24.720;2024-01-30T02:45:09;17.10;;;6.35;;
35685;SDS011;21808;42.142;24.720;2024-01-30T02:47:36;15.10;;;6.28;;
35685;SDS011;21808;42.142;24.720;2024-01-30T02:50:02;15.73;;;6.93;;
35685;SDS011;21808;42.142;24.720;2024-01-30T02:52:30;17.63;;;7.38;;
35685;SDS011;21808;42.142;24.720;2024-01-30T02:54:56;16.88;;;6.93;;
35685;SDS011;21808;42.142;24.720;2024-01-30T02:57:24;14.50;;;6.38;;
35685;SDS011;21808;42.142;24.720;2024-01-30T02:59:52;16.63;;;6.75;;
35685;SDS011;21808;42.142;24.720;2024-01-30T03:02:18;18.13;;;7.15;;
35685;SDS011;21808;42.142;24.720;2024-01-30T03:04:48;18.02;;;6.53;;
35685;SDS011;21808;42.142;24.720;2024-01-30T03:07:15;20.75;;;7.25;;
35685;SDS011;21808;42.142;24.720;2024-01-30T03:09:42;12.80;;;5.05;;
35685;SDS011;21808;42.142;24.720;2024-01-30T03:12:10;16.33;;;7.30;;
35685;SDS011;21808;42.142;24.720;2024-01-30T03:14:38;16.52;;;6.60;;
35685;SDS011;21808;42.142;24.720;2024-01-30T03:17:05;19.83;;;8.15;;
35685;SDS011;21808;42.142;24.720;2024-01-30T03:19:31;20.15;;;7.30;;
35685;SDS011;21808;42.142;24.720;2024-01-30T03:21:58;19.38;;;7.32;;
35685;SDS011;21808;42.142;24.720;2024-01-30T03:24:28;16.83;;;7.65;;
35685;SDS011;21808;42.142;24.720;2024-01-30T03:26:55;18.20;;;7.22;;
35685;SDS011;21808;42.142;24.720;2024-01-30T03:29:21;16.83;;;7.30;;
35685;SDS011;21808;42.142;24.720;2024-01-30T03:31:49;15.88;;;5.95;;
35685;SDS011;21808;42.142;24.720;2024-01-30T03:34:16;17.40;;;8.38;;
35685;SDS011;21808;42.142;24.720;2024-01-30T03:36:43;17.92;;;7.57;;
35685;SDS011;21808;42.142;24.720;2024-01-30T03:39:10;14.38;;;5.68;;
35685;SDS011;21808;42.142;24.720;2024-01-30T03:41:36;16.52;;;5.72;;
35685;SDS011;21808;42.142;24.720;2024-01-30T03:44:03;18.13;;;6.35;;
35685;SDS011;21808;42.142;24.720;2024-01-30T03:46:30;15.68;;;6.15;;
35685;SDS011;21808;42.142;24.720;2024-01-30T03:48:58;18.45;;;6.45;;
35685;SDS011;21808;42.142;24.720;2024-01-30T03:51:25;14.30;;;5.32;;
35685;SDS011;21808;42.142;24.720;2024-01-30T03:53:51;19.60;;;5.95;;
35685;SDS011;21808;42.142;24.720;2024-01-30T03:56:18;14.02;;;7.07;;
35685;SDS011;21808;42.142;24.720;2024-01-30T03:58:45;14.30;;;6.25;;
35685;SDS011;21808;42.142;24.720;2024-01-30T04:01:13;16.75;;;5.97;;
35685;SDS011;21808;42.142;24.720;2024-01-30T04:03:39;16.33;;;5.95;;
35685;SDS011;21808;42.142;24.720;2024-01-30T04:06:08;14.95;;;6.00;;
35685;SDS011;21808;42.142;24.720;2024-01-30T04:08:35;21.58;;;6.60;;
35685;SDS011;21808;42.142;24.720;2024-01-30T04:11:05;17.10;;;6.63;;
35685;SDS011;21808;42.142;24.720;2024-01-30T04:13:32;21.55;;;7.97;;
35685;SDS011;21808;42.142;24.720;2024-01-30T04:15:59;16.35;;;6.45;;
35685;SDS011;21808;42.142;24.720;2024-01-30T04:18:28;14.60;;;5.88;;
35685;SDS011;21808;42.142;24.720;2024-01-30T04:20:54;16.00;;;6.47;;
35685;SDS011;21808;42.142;24.720;2024-01-30T04:23:24;21.48;;;7.05;;
35685;SDS011;21808;42.142;24.720;2024-01-30T04:25:51;17.50;;;7.93;;
35685;SDS011;21808;42.142;24.720;2024-01-30T04:28:17;19.73;;;5.85;;
35685;SDS011;21808;42.142;24.720;2024-01-30T04:30:44;18.05;;;7.78;;
35685;SDS011;21808;42.142;24.720;2024-01-30T04:33:11;19.02;;;6.85;;
35685;SDS011;21808;42.142;24.720;2024-01-30T04:35:38;13.65;;;5.22;;
35685;SDS011;21808;42.142;24.720;2024-01-30T04:38:06;17.58;;;6.75;;
35685;SDS011;21808;42.142;24.720;2024-01-30T04:40:34;19.92;;;6.82;;
35685;SDS011;21808;42.142;24.720;2024-01-30T04:43:01;17.33;;;5.85;;
35685;SDS011;21808;42.142;24.720;2024-01-30T04:45:28;18.73;;;7.45;;
35685;SDS011;21808;42.142;24.720;2024-01-30T04:47:54;18.88;;;7.50;;
35685;SDS011;21808;42.142;24.720;2024-01-30T04:50:21;19.90;;;7.93;;
35685;SDS011;21808;42.142;24.720;2024-01-30T04:52:48;17.45;;;7.65;;
35685;SDS011;21808;42.142;24.720;2024-01-30T04:55:15;20.23;;;8.30;;
35685;SDS011;21808;42.142;24.720;2024-01-30T04:57:44;19.60;;;7.72;;
35685;SDS011;21808;42.142;24.720;2024-01-30T05:00:14;20.27;;;6.97;;
35685;SDS011;21808;42.142;24.720;2024-01-30T05:02:41;19.60;;;7.40;;
35685;SDS011;21808;42.142;24.720;2024-01-30T05:05:08;17.35;;;7.82;;
35685;SDS011;21808;42.142;24.720;2024-01-30T05:07:35;21.50;;;8.23;;
35685;SDS011;21808;42.142;24.720;2024-01-30T05:10:02;21.02;;;7.82;;
35685;SDS011;21808;42.142;24.720;2024-01-30T05:12:32;22.48;;;8.27;;
35685;SDS011;21808;42.142;24.720;2024-01-30T05:15:04;20.38;;;7.30;;
35685;SDS011;21808;42.142;24.720;2024-01-30T05:17:31;14.57;;;6.10;;
35685;SDS011;21808;42.142;24.720;2024-01-30T05:19:57;18.38;;;7.50;;
35685;SDS011;21808;42.142;24.720;2024-01-30T05:22:24;20.88;;;8.30;;
35685;SDS011;21808;42.142;24.720;2024-01-30T05:24:51;22.25;;;8.50;;
35685;SDS011;21808;42.142;24.720;2024-01-30T05:27:18;21.02;;;8.38;;
35685;SDS011;21808;42.142;24.720;2024-01-30T05:29:45;24.20;;;8.15;;
35685;SDS011;21808;42.142;24.720;2024-01-30T05:32:15;19.95;;;8.35;;
35685;SDS011;21808;42.142;24.720;2024-01-30T05:34:42;20.58;;;8.27;;
35685;SDS011;21808;42.142;24.720;2024-01-30T05:37:08;20.33;;;7.47;;
35685;SDS011;21808;42.142;24.720;2024-01-30T05:39:43;19.20;;;7.70;;
35685;SDS011;21808;42.142;24.720;2024-01-30T05:42:10;20.38;;;8.70;;
35685;SDS011;21808;42.142;24.720;2024-01-30T05:44:36;23.30;;;8.70;;
35685;SDS011;21808;42.142;24.720;2024-01-30T05:47:03;25.30;;;8.98;;
35685;SDS011;21808;42.142;24.720;2024-01-30T05:49:31;21.30;;;8.10;;
35685;SDS011;21808;42.142;24.720;2024-01-30T05:52:03;20.10;;;8.13;;
35685;SDS011;21808;42.142;24.720;2024-01-30T05:54:30;25.00;;;7.80;;
35685;SDS011;21808;42.142;24.720;2024-01-30T05:56:57;22.60;;;8.55;;
35685;SDS011;21808;42.142;24.720;2024-01-30T05:59:23;21.08;;;8.95;;
35685;SDS011;21808;42.142;24.720;2024-01-30T06:01:50;23.23;;;9.10;;
35685;SDS011;21808;42.142;24.720;2024-01-30T06:04:17;21.58;;;8.77;;
35685;SDS011;21808;42.142;24.720;2024-01-30T06:06:47;24.98;;;10.02;;
35685;SDS011;21808;42.142;24.720;2024-01-30T06:09:14;20.67;;;7.70;;
35685;SDS011;21808;42.142;24.720;2024-01-30T06:11:41;19.92;;;7.28;;
35685;SDS011;21808;42.142;24.720;2024-01-30T06:14:08;18.33;;;8.25;;
35685;SDS011;21808;42.142;24.720;2024-01-30T06:16:35;22.83;;;7.55;;
35685;SDS011;21808;42.142;24.720;2024-01-30T06:19:01;17.40;;;6.90;;
35685;SDS011;21808;42.142;24.720;2024-01-30T06:21:28;20.33;;;8.00;;
35685;SDS011;21808;42.142;24.720;2024-01-30T06:23:56;23.20;;;7.38;;
35685;SDS011;21808;42.142;24.720;2024-01-30T06:26:23;16.42;;;6.05;;
35685;SDS011;21808;42.142;24.720;2024-01-30T06:28:49;21.48;;;8.18;;
35685;SDS011;21808;42.142;24.720;2024-01-30T06:31:16;22.77;;;8.43;;
35685;SDS011;21808;42.142;24.720;2024-01-30T06:33:53;19.98;;;8.40;;
35685;SDS011;21808;42.142;24.720;2024-01-30T06:36:22;18.02;;;9.20;;
35685;SDS011;21808;42.142;24.720;2024-01-30T06:38:49;25.50;;;9.52;;
35685;SDS011;21808;42.142;24.720;2024-01-30T06:41:17;19.73;;;8.48;;
35685;SDS011;21808;42.142;24.720;2024-01-30T06:43:46;19.65;;;9.50;;
35685;SDS011;21808;42.142;24.720;2024-01-30T06:46:13;19.30;;;9.68;;
35685;SDS011;21808;42.142;24.720;2024-01-30T06:48:40;17.10;;;8.13;;
35685;SDS011;21808;42.142;24.720;2024-01-30T06:51:09;22.42;;;9.52;;
35685;SDS011;21808;42.142;24.720;2024-01-30T06:53:37;20.08;;;8.48;;
35685;SDS011;21808;42.142;24.720;2024-01-30T06:56:04;21.90;;;9.10;;
35685;SDS011;21808;42.142;24.720;2024-01-30T06:58:32;17.27;;;7.13;;
35685;SDS011;21808;42.142;24.720;2024-01-30T07:00:59;20.10;;;9.10;;
35685;SDS011;21808;42.142;24.720;2024-01-30T07:03:26;19.00;;;8.48;;
35685;SDS011;21808;42.142;24.720;2024-01-30T07:05:53;20.08;;;8.27;;
35685;SDS011;21808;42.142;24.720;2024-01-30T07:08:20;17.27;;;8.73;;
35685;SDS011;21808;42.142;24.720;2024-01-30T07:10:47;23.77;;;9.02;;
35685;SDS011;21808;42.142;24.720;2024-01-30T07:13:14;16.30;;;8.20;;
35685;SDS011;21808;42.142;24.720;2024-01-30T07:15:44;21.70;;;8.15;;
35685;SDS011;21808;42.142;24.720;2024-01-30T07:18:11;16.30;;;7.85;;
35685;SDS011;21808;42.142;24.720;2024-01-30T07:20:40;16.27;;;7.72;;
35685;SDS011;21808;42.142;24.720;2024-01-30T07:23:12;21.10;;;7.93;;
35685;SDS011;21808;42.142;24.720;2024-01-30T07:25:40;21.75;;;9.15;;
35685;SDS011;21808;42.142;24.720;2024-01-30T07:28:07;18.05;;;9.20;;
35685;SDS011;21808;42.142;24.720;2024-01-30T07:30:36;22.13;;;9.10;;
35685;SDS011;21808;42.142;24.720;2024-01-30T07:33:07;26.00;;;9.35;;
35685;SDS011;21808;42.142;24.720;2024-01-30T07:35:35;20.45;;;9.18;;
35685;SDS011;21808;42.142;24.720;2024-01-30T07:38:02;18.40;;;7.78;;
35685;SDS011;21808;42.142;24.720;2024-01-30T07:40:32;19.25;;;8.73;;
35685;SDS011;21808;42.142;24.720;2024-01-30T07:43:00;20.00;;;9.48;;
35685;SDS011;21808;42.142;24.720;2024-01-30T07:45:27;18.10;;;7.85;;
35685;SDS011;21808;42.142;24.720;2024-01-30T07:47:59;19.90;;;8.88;;
35685;SDS011;21808;42.142;24.720;2024-01-30T07:50:30;22.05;;;8.90;;
35685;SDS011;21808;42.142;24.720;2024-01-30T07:52:56;18.95;;;8.57;;
35685;SDS011;21808;42.142;24.720;2024-01-30T07:55:23;18.63;;;8.80;;
35685;SDS011;21808;42.142;24.720;2024-01-30T07:57:58;18.55;;;8.55;;
35685;SDS011;21808;42.142;24.720;2024-01-30T08:00:30;25.73;;;9.50;;
35685;SDS011;21808;42.142;24.720;2024-01-30T08:02:57;18.27;;;7.72;;
35685;SDS011;21808;42.142;24.720;2024-01-30T08:05:25;18.35;;;8.15;;
35685;SDS011;21808;42.142;24.720;2024-01-30T08:07:58;22.40;;;7.45;;
35685;SDS011;21808;42.142;24.720;2024-01-30T08:10:27;19.02;;;8.35;;
35685;SDS011;21808;42.142;24.720;2024-01-30T08:12:56;15.38;;;6.30;;
35685;SDS011;21808;42.142;24.720;2024-01-30T08:15:26;13.65;;;6.35;;
35685;SDS011;21808;42.142;24.720;2024-01-30T08:17:53;15.15;;;6.72;;
35685;SDS011;21808;42.142;24.720;2024-01-30T08:20:24;13.95;;;5.40;;
35685;SDS011;21808;42.142;24.720;2024-01-30T08:22:51;11.88;;;5.10;;
35685;SDS011;21808;42.142;24.720;2024-01-30T08:25:21;12.88;;;5.88;;
35685;SDS011;21808;42.142;24.720;2024-01-30T08:27:50;21.67;;;6.25;;
35685;SDS011;21808;42.142;24.720;2024-01-30T08:30:24;12.63;;;5.15;;
35685;SDS011;21808;42.142;24.720;2024-01-30T08:32:51;11.90;;;5.07;;
35685;SDS011;21808;42.142;24.720;2024-01-30T08:35:18;11.32;;;4.85;;
35685;SDS011;21808;42.142;24.720;2024-01-30T08:37:45;10.98;;;4.97;;
35685;SDS011;21808;42.142;24.720;2024-01-30T08:40:12;14.15;;;5.22;;
35685;SDS011;21808;42.142;24.720;2024-01-30T08:42:40;14.43;;;6.50;;
35685;SDS011;21808;42.142;24.720;2024-01-30T08:45:07;13.10;;;4.95;;
35685;SDS011;21808;42.142;24.720;2024-01-30T08:47:36;13.10;;;5.70;;
35685;SDS011;21808;42.142;24.720;2024-01-30T08:50:04;12.48;;;4.63;;
35685;SDS011;21808;42.142;24.720;2024-01-30T08:52:31;14.02;;;5.95;;
35685;SDS011;21808;42.142;24.720;2024-01-30T08:54:58;13.40;;;5.35;;
35685;SDS011;21808;42.142;24.720;2024-01-30T08:57:25;16.40;;;5.82;;
35685;SDS011;21808;42.142;24.720;2024-01-30T09:00:01;14.18;;;5.05;;
35685;SDS011;21808;42.142;24.720;2024-01-30T09:02:45;15.70;;;6.75;;
35685;SDS011;21808;42.142;24.720;2024-01-30T09:05:12;10.82;;;5.10;;
35685;SDS011;21808;42.142;24.720;2024-01-30T09:07:39;11.85;;;5.63;;
35685;SDS011;21808;42.142;24.720;2024-01-30T09:10:06;13.07;;;5.35;;
35685;SDS011;21808;42.142;24.720;2024-01-30T09:12:40;10.95;;;4.75;;
35685;SDS011;21808;42.142;24.720;2024-01-30T09:15:10;11.10;;;5.10;;
35685;SDS011;21808;42.142;24.720;2024-01-30T09:17:37;12.70;;;5.20;;
35685;SDS011;21808;42.142;24.720;2024-01-30T09:20:04;13.10;;;6.65;;
35685;SDS011;21808;42.142;24.720;2024-01-30T09:22:31;17.23;;;5.13;;
35685;SDS011;21808;42.142;24.720;2024-01-30T09:24:58;10.43;;;4.82;;
35685;SDS011;21808;42.142;24.720;2024-01-30T09:27:25;14.60;;;6.07;;
35685;SDS011;21808;42.142;24.720;2024-01-30T09:29:52;13.85;;;5.70;;
35685;SDS011;21808;42.142;24.720;2024-01-30T09:32:20;18.63;;;7.20;;
35685;SDS011;21808;42.142;24.720;2024-01-30T09:34:49;17.50;;;7.65;;
35685;SDS011;21808;42.142;24.720;2024-01-30T09:37:16;14.93;;;6.78;;
35685;SDS011;21808;42.142;24.720;2024-01-30T09:39:49;16.67;;;7.50;;
35685;SDS011;21808;42.142;24.720;2024-01-30T09:42:17;14.63;;;6.10;;
35685;SDS011;21808;42.142;24.720;2024-01-30T09:44:45;17.27;;;6.75;;
35685;SDS011;21808;42.142;24.720;2024-01-30T09:47:13;16.05;;;6.40;;
35685;SDS011;21808;42.142;24.720;2024-01-30T09:49:43;19.73;;;6.72;;
35685;SDS011;21808;42.142;24.720;2024-01-30T09:52:10;23.25;;;7.85;;
35685;SDS011;21808;42.142;24.720;2024-01-30T09:54:37;14.13;;;5.43;;
35685;SDS011;21808;42.142;24.720;2024-01-30T09:57:07;17.42;;;6.35;;
35685;SDS011;21808;42.142;24.720;2024-01-30T09:59:36;15.50;;;6.25;;
35685;SDS011;21808;42.142;24.720;2024-01-30T10:02:03;14.77;;;6.30;;
35685;SDS011;21808;42.142;24.720;2024-01-30T10:04:31;18.13;;;8.48;;
35685;SDS011;21808;42.142;24.720;2024-01-30T10:07:01;17.38;;;7.07;;
35685;SDS011;21808;42.142;24.720;2024-01-30T10:09:34;13.85;;;6.43;;
35685;SDS011;21808;42.142;24.720;2024-01-30T10:12:02;17.23;;;6.93;;
35685;SDS011;21808;42.142;24.720;2024-01-30T10:14:32;16.10;;;6.63;;
35685;SDS011;21808;42.142;24.720;2024-01-30T10:17:00;18.63;;;6.47;;
35685;SDS011;21808;42.142;24.720;2024-01-30T10:22:05;16.15;;;5.22;;
35685;SDS011;21808;42.142;24.720;2024-01-30T10:24:34;14.68;;;6.00;;
35685;SDS011;21808;42.142;24.720;2024-01-30T10:27:05;13.90;;;5.30;;
35685;SDS011;21808;42.142;24.720;2024-01-30T10:29:32;15.07;;;5.55;;
35685;SDS011;21808;42.142;24.720;2024-01-30T10:31:59;16.38;;;5.10;;
35685;SDS011;21808;42.142;24.720;2024-01-30T10:34:26;14.65;;;5.22;;
35685;SDS011;21808;42.142;24.720;2024-01-30T10:36:55;13.13;;;5.10;;
35685;SDS011;21808;42.142;24.720;2024-01-30T10:39:27;11.25;;;4.57;;
35685;SDS011;21808;42.142;24.720;2024-01-30T10:41:55;16.27;;;4.53;;
35685;SDS011;21808;42.142;24.720;2024-01-30T10:44:22;16.73;;;6.45;;
35685;SDS011;21808;42.142;24.720;2024-01-30T10:46:50;12.32;;;4.80;;
35685;SDS011;21808;42.142;24.720;2024-01-30T10:49:20;11.32;;;3.90;;
35685;SDS011;21808;42.142;24.720;2024-01-30T10:51:48;10.35;;;3.78;;
35685;SDS011;21808;42.142;24.720;2024-01-30T10:54:15;10.20;;;4.20;;
35685;SDS011;21808;42.142;24.720;2024-01-30T10:56:45;10.82;;;4.90;;
35685;SDS011;21808;42.142;24.720;2024-01-30T10:59:12;11.38;;;4.35;;
35685;SDS011;21808;42.142;24.720;2024-01-30T11:01:40;12.63;;;4.65;;
35685;SDS011;21808;42.142;24.720;2024-01-30T11:04:07;17.58;;;5.47;;
35685;SDS011;21808;42.142;24.720;2024-01-30T11:06:40;12.52;;;5.30;;
35685;SDS011;21808;42.142;24.720;2024-01-30T11:09:16;11.73;;;5.00;;
35685;SDS011;21808;42.142;24.720;2024-01-30T11:11:49;12.18;;;4.55;;
35685;SDS011;21808;42.142;24.720;2024-01-30T11:14:16;12.75;;;5.53;;
35685;SDS011;21808;42.142;24.720;2024-01-30T11:16:43;11.45;;;4.78;;
35685;SDS011;21808;42.142;24.720;2024-01-30T11:19:12;10.00;;;3.97;;
35685;SDS011;21808;42.142;24.720;2024-01-30T11:21:41;10.73;;;3.97;;
35685;SDS011;21808;42.142;24.720;2024-01-30T11:24:08;11.10;;;3.83;;
35685;SDS011;21808;42.142;24.720;2024-01-30T11:26:46;10.30;;;3.70;;
35685;SDS011;21808;42.142;24.720;2024-01-30T11:29:17;8.88;;;3.70;;
35685;SDS011;21808;42.142;24.720;2024-01-30T11:31:53;10.13;;;3.20;;
35685;SDS011;21808;42.142;24.720;2024-01-30T11:34:20;10.35;;;3.15;;
35685;SDS011;21808;42.142;24.720;2024-01-30T11:36:50;13.85;;;4.78;;
35685;SDS011;21808;42.142;24.720;2024-01-30T11:39:20;10.77;;;3.85;;
35685;SDS011;21808;42.142;24.720;2024-01-30T11:41:50;8.85;;;3.30;;
35685;SDS011;21808;42.142;24.720;2024-01-30T11:44:19;9.95;;;3.90;;
35685;SDS011;21808;42.142;24.720;2024-01-30T11:46:47;9.18;;;3.22;;
35685;SDS011;21808;42.142;24.720;2024-01-30T11:49:14;8.45;;;3.10;;
35685;SDS011;21808;42.142;24.720;2024-01-30T11:51:41;11.00;;;3.63;;
35685;SDS011;21808;42.142;24.720;2024-01-30T11:54:08;9.13;;;3.45;;
35685;SDS011;21808;42.142;24.720;2024-01-30T11:56:36;10.00;;;3.20;;
35685;SDS011;21808;42.142;24.720;2024-01-30T11:59:03;11.13;;;3.22;;
35685;SDS011;21808;42.142;24.720;2024-01-30T12:01:33;7.40;;;2.80;;
35685;SDS011;21808;42.142;24.720;2024-01-30T12:04:00;10.57;;;3.13;;
35685;SDS011;21808;42.142;24.720;2024-01-30T12:06:27;8.50;;;2.90;;
35685;SDS011;21808;42.142;24.720;2024-01-30T12:08:56;10.77;;;3.63;;
35685;SDS011;21808;42.142;24.720;2024-01-30T12:11:25;10.65;;;3.30;;
35685;SDS011;21808;42.142;24.720;2024-01-30T12:13:53;8.30;;;2.97;;
35685;SDS011;21808;42.142;24.720;2024-01-30T12:16:23;9.23;;;3.38;;
35685;SDS011;21808;42.142;24.720;2024-01-30T12:18:58;8.70;;;2.88;;
35685;SDS011;21808;42.142;24.720;2024-01-30T12:21:30;9.90;;;3.40;;
35685;SDS011;21808;42.142;24.720;2024-01-30T12:23:57;9.57;;;3.25;;
35685;SDS011;21808;42.142;24.720;2024-01-30T12:26:24;7.60;;;2.83;;
35685;SDS011;21808;42.142;24.720;2024-01-30T12:28:54;8.35;;;2.70;;
35685;SDS011;21808;42.142;24.720;2024-01-30T12:31:25;12.45;;;3.10;;
35685;SDS011;21808;42.142;24.720;2024-01-30T12:33:53;9.25;;;3.03;;
35685;SDS011;21808;42.142;24.720;2024-01-30T12:36:24;9.50;;;3.20;;
35685;SDS011;21808;42.142;24.720;2024-01-30T12:38:53;9.38;;;3.13;;
35685;SDS011;21808;42.142;24.720;2024-01-30T12:41:20;11.05;;;3.67;;
35685;SDS011;21808;42.142;24.720;2024-01-30T12:43:46;10.93;;;3.00;;
35685;SDS011;21808;42.142;24.720;2024-01-30T12:46:16;11.50;;;3.38;;
35685;SDS011;21808;42.142;24.720;2024-01-30T12:48:43;10.80;;;4.07;;
35685;SDS011;21808;42.142;24.720;2024-01-30T12:51:13;10.43;;;3.22;;
35685;SDS011;21808;42.142;24.720;2024-01-30T12:53:47;9.82;;;3.30;;
35685;SDS011;21808;42.142;24.720;2024-01-30T12:56:15;8.98;;;3.40;;
35685;SDS011;21808;42.142;24.720;2024-01-30T12:58:51;11.02;;;4.13;;
35685;SDS011;21808;42.142;24.720;2024-01-30T13:01:21;11.75;;;4.60;;
35685;SDS011;21808;42.142;24.720;2024-01-30T13:03:48;10.75;;;4.15;;
35685;SDS011;21808;42.142;24.720;2024-01-30T13:06:16;8.68;;;3.63;;
35685;SDS011;21808;42.142;24.720;2024-01-30T13:08:49;8.50;;;3.53;;
35685;SDS011;21808;42.142;24.720;2024-01-30T13:11:16;8.98;;;3.38;;
35685;SDS011;21808;42.142;24.720;2024-01-30T13:13:47;11.20;;;5.00;;
35685;SDS011;21808;42.142;24.720;2024-01-30T13:16:14;11.73;;;3.97;;
35685;SDS011;21808;42.142;24.720;2024-01-30T13:18:41;17.25;;;7.43;;
35685;SDS011;21808;42.142;24.720;2024-01-30T13:21:08;11.85;;;5.28;;
35685;SDS011;21808;42.142;24.720;2024-01-30T13:23:36;11.90;;;4.80;;
35685;SDS011;21808;42.142;24.720;2024-01-30T13:26:03;12.65;;;4.30;;
35685;SDS011;21808;42.142;24.720;2024-01-30T13:28:29;12.48;;;5.20;;
35685;SDS011;21808;42.142;24.720;2024-01-30T13:30:58;12.57;;;3.78;;
35685;SDS011;21808;42.142;24.720;2024-01-30T13:33:31;15.93;;;5.07;;
35685;SDS011;21808;42.142;24.720;2024-01-30T13:35:57;14.07;;;3.88;;
35685;SDS011;21808;42.142;24.720;2024-01-30T13:38:25;10.57;;;4.18;;
35685;SDS011;21808;42.142;24.720;2024-01-30T13:40:53;13.02;;;4.57;;
35685;SDS011;21808;42.142;24.720;2024-01-30T13:43:22;9.38;;;3.78;;
35685;SDS011;21808;42.142;24.720;2024-01-30T13:45:49;12.23;;;4.80;;
35685;SDS011;21808;42.142;24.720;2024-01-30T13:48:16;12.07;;;5.07;;
35685;SDS011;21808;42.142;24.720;2024-01-30T13:50:43;16.52;;;5.57;;
35685;SDS011;21808;42.142;24.720;2024-01-30T13:53:10;15.27;;;4.30;;
35685;SDS011;21808;42.142;24.720;2024-01-30T13:55:39;10.30;;;4.38;;
35685;SDS011;21808;42.142;24.720;2024-01-30T13:58:08;14.50;;;4.13;;
35685;SDS011;21808;42.142;24.720;2024-01-30T14:00:36;15.23;;;4.13;;
35685;SDS011;21808;42.142;24.720;2024-01-30T14:03:03;10.73;;;3.97;;
35685;SDS011;21808;42.142;24.720;2024-01-30T14:05:30;10.65;;;3.97;;
35685;SDS011;21808;42.142;24.720;2024-01-30T14:07:58;10.55;;;3.85;;
35685;SDS011;21808;42.142;24.720;2024-01-30T14:10:26;12.73;;;4.85;;
35685;SDS011;21808;42.142;24.720;2024-01-30T14:12:53;11.02;;;3.80;;
35685;SDS011;21808;42.142;24.720;2024-01-30T14:15:24;11.63;;;3.92;;
35685;SDS011;21808;42.142;24.720;2024-01-30T14:17:56;22.73;;;4.38;;
35685;SDS011;21808;42.142;24.720;2024-01-30T14:20:25;10.52;;;4.05;;
35685;SDS011;21808;42.142;24.720;2024-01-30T14:22:52;12.43;;;4.30;;
35685;SDS011;21808;42.142;24.720;2024-01-30T14:25:25;11.75;;;4.28;;
35685;SDS011;21808;42.142;24.720;2024-01-30T14:27:52;11.93;;;4.00;;
35685;SDS011;21808;42.142;24.720;2024-01-30T14:30:19;10.77;;;4.13;;